createdAt,value
2018-06-05T00:06:46.286Z,18.30
2018-06-05T00:09:33.444Z,18.20
2018-06-05T00:12:22.093Z,18.00
2018-06-05T00:15:09.445Z,18.00
2018-06-05T00:18:03.189Z,18.20
2018-06-05T00:23:40.583Z,18.40
2018-06-05T00:26:26.935Z,18.20
2018-06-05T00:31:48.645Z,18.60
2018-06-05T00:34:25.261Z,18.40
2018-06-05T00:37:02.417Z,18.50
2018-06-05T00:39:39.124Z,18.60
2018-06-05T00:42:16.161Z,18.60
2018-06-05T00:44:53.088Z,18.40
2018-06-05T00:47:36.922Z,18.40
2018-06-05T00:50:18.234Z,18.30
2018-06-05T00:55:31.903Z,18.60
2018-06-05T00:58:07.499Z,18.60
2018-06-05T01:03:29.139Z,18.10
2018-06-05T01:06:06.774Z,18.30
2018-06-05T01:08:51.902Z,18.20
2018-06-05T01:11:29.630Z,18.10
2018-06-05T01:14:08.845Z,18.20
2018-06-05T01:16:43.833Z,18.50
2018-06-05T01:19:24.505Z,18.80
2018-06-05T01:22:00.999Z,19.00
2018-06-05T01:24:39.741Z,18.90
2018-06-05T01:27:18.301Z,18.60
2018-06-05T01:32:35.569Z,18.40
2018-06-05T01:37:47.633Z,18.30
2018-06-05T01:40:27.399Z,18.30
2018-06-05T01:43:08.081Z,18.30
2018-06-05T01:45:44.437Z,18.40
2018-06-05T01:48:23.615Z,18.40
2018-06-05T01:51:05.815Z,18.30
2018-06-05T01:53:44.385Z,17.80
2018-06-05T01:56:25.792Z,17.70
2018-06-05T01:59:03.279Z,17.50
2018-06-05T02:01:36.444Z,17.70
2018-06-05T02:04:15.710Z,17.90
2018-06-05T02:06:58.842Z,18.10
2018-06-05T02:09:43.340Z,18.30
2018-06-05T02:12:26.699Z,18.50
2018-06-05T02:15:10.100Z,18.50
2018-06-05T02:17:46.140Z,18.50
2018-06-05T02:20:26.317Z,18.40
2018-06-05T02:25:39.228Z,18.60
2018-06-05T02:28:19.376Z,18.70
2018-06-05T02:31:02.360Z,18.40
2018-06-05T02:33:44.991Z,18.40
2018-06-05T02:39:14.479Z,18.20
2018-06-05T02:41:51.540Z,18.20
2018-06-05T02:44:35.418Z,18.30
2018-06-05T02:47:13.456Z,18.50
2018-06-05T02:49:54.251Z,18.40
2018-06-05T02:52:37.405Z,18.60
2018-06-05T02:55:17.345Z,18.70
2018-06-05T02:57:52.545Z,18.70
2018-06-05T03:00:30.646Z,18.70
2018-06-05T03:03:06.950Z,18.80
2018-06-05T03:08:19.837Z,18.50
2018-06-05T03:10:54.433Z,18.40
2018-06-05T03:13:35.753Z,18.70
2018-06-05T03:18:56.311Z,18.70
2018-06-05T03:21:27.857Z,18.40
2018-06-05T03:24:01.947Z,18.00
2018-06-05T03:26:38.952Z,17.90
2018-06-05T03:29:19.142Z,17.90
2018-06-05T03:32:00.979Z,17.60
2018-06-05T03:34:44.288Z,17.70
2018-06-05T03:37:31.667Z,18.10
2018-06-05T03:40:21.557Z,18.50
2018-06-05T03:43:03.573Z,18.80
2018-06-05T03:45:40.810Z,19.00
2018-06-05T03:48:20.832Z,19.00
2018-06-05T03:50:59.546Z,18.80
2018-06-05T03:53:41.079Z,18.90
2018-06-05T03:56:18.380Z,19.10
2018-06-05T03:58:56.576Z,19.10
2018-06-05T04:01:36.245Z,19.10
2018-06-05T04:04:17.296Z,19.30
2018-06-05T04:06:58.043Z,19.20
2018-06-05T04:09:43.231Z,19.10
2018-06-05T04:12:23.169Z,19.10
2018-06-05T04:15:04.383Z,19.10
2018-06-05T04:17:41.421Z,18.80
2018-06-05T04:20:23.483Z,18.80
2018-06-05T04:23:02.793Z,18.90
2018-06-05T04:25:41.497Z,19.00
2018-06-05T04:28:17.840Z,19.10
2018-06-05T04:30:58.482Z,19.40
2018-06-05T04:33:39.624Z,19.40
2018-06-05T04:36:17.405Z,19.70
2018-06-05T04:39:01.211Z,19.40
2018-06-05T04:41:38.929Z,19.50
2018-06-05T04:44:16.837Z,20.00
2018-06-05T04:46:53.060Z,20.20
2018-06-05T04:49:30.925Z,19.90
2018-06-05T04:52:06.209Z,20.10
2018-06-05T04:54:48.659Z,20.50
2018-06-05T05:00:03.025Z,21.20
2018-06-05T05:02:43.733Z,20.90
2018-06-05T05:05:18.593Z,20.80
2018-06-05T05:07:57.248Z,21.10
2018-06-05T05:10:33.542Z,21.10
2018-06-05T05:15:56.165Z,20.90
2018-06-05T05:18:35.628Z,21.00
2018-06-05T05:21:18.386Z,21.00
2018-06-05T05:23:58.621Z,20.80
2018-06-05T05:26:43.006Z,20.90
2018-06-05T05:29:24.316Z,21.00
2018-06-05T05:32:02.461Z,21.20
2018-06-05T05:34:42.171Z,21.30
2018-06-05T05:37:22.993Z,21.20
2018-06-05T05:40:10.698Z,21.00
2018-06-05T05:42:48.277Z,20.80
2018-06-05T05:45:24.452Z,20.90
2018-06-05T05:48:01.534Z,21.00
2018-06-05T05:50:45.187Z,21.20
2018-06-05T05:53:25.872Z,21.30
2018-06-05T05:56:09.422Z,21.30
2018-06-05T05:58:50.832Z,21.30
2018-06-05T06:01:32.322Z,21.40
2018-06-05T06:04:12.416Z,21.90
2018-06-05T06:06:55.493Z,22.20
2018-06-05T06:09:30.692Z,22.50
2018-06-05T06:12:11.245Z,22.80
2018-06-05T06:14:51.480Z,22.90
2018-06-05T06:20:03.919Z,22.60
2018-06-05T06:22:48.086Z,22.20
2018-06-05T06:25:29.369Z,22.40
2018-06-05T06:28:14.003Z,23.10
2018-06-05T06:33:40.102Z,23.90
2018-06-05T06:36:24.210Z,23.20
2018-06-05T06:38:59.242Z,23.40
2018-06-05T06:41:34.806Z,23.00
2018-06-05T06:46:56.172Z,23.10
2018-06-05T06:49:35.399Z,23.10
2018-06-05T06:52:15.934Z,23.50
2018-06-05T06:54:56.154Z,23.80
2018-06-05T06:57:39.790Z,23.50
2018-06-05T07:00:17.429Z,23.70
2018-06-05T07:02:55.563Z,23.30
2018-06-05T07:05:32.260Z,23.40
2018-06-05T07:08:15.895Z,23.40
2018-06-05T07:11:04.077Z,23.70
2018-06-05T07:13:43.839Z,23.80
2018-06-05T07:16:25.548Z,23.50
2018-06-05T07:19:07.825Z,23.30
2018-06-05T07:21:51.422Z,23.80
2018-06-05T07:24:27.219Z,24.10
2018-06-05T07:27:12.874Z,24.60
2018-06-05T07:29:50.333Z,24.40
2018-06-05T07:32:27.192Z,24.50
2018-06-05T07:35:12.023Z,24.30
2018-06-05T07:37:47.203Z,24.80
2018-06-05T07:43:03.580Z,24.60
2018-06-05T07:45:44.637Z,24.80
2018-06-05T07:50:57.067Z,24.10
2018-06-05T07:53:33.775Z,24.10
2018-06-05T07:56:10.192Z,24.50
2018-06-05T08:01:25.705Z,24.60
2018-06-05T08:04:07.321Z,25.20
2018-06-05T08:06:48.292Z,24.90
2018-06-05T08:09:26.167Z,24.90
2018-06-05T08:12:02.069Z,25.40
2018-06-05T08:14:46.549Z,25.90
2018-06-05T08:17:22.037Z,26.00
2018-06-05T08:20:02.540Z,26.20
2018-06-05T08:22:59.980Z,26.10
2018-06-05T08:25:35.467Z,26.20
2018-06-05T08:28:15.509Z,26.20
2018-06-05T08:30:51.091Z,26.10
2018-06-05T08:33:30.274Z,26.10
2018-06-05T08:36:12.580Z,26.10
2018-06-05T08:38:54.232Z,26.20
2018-06-05T08:44:07.563Z,26.90
2018-06-05T08:46:43.054Z,26.20
2018-06-05T08:49:28.630Z,26.10
2018-06-05T08:52:06.859Z,26.40
2018-06-05T08:54:43.143Z,26.10
2018-06-05T08:57:25.446Z,26.70
2018-06-05T09:00:05.326Z,27.00
2018-06-05T09:05:18.881Z,26.60
2018-06-05T09:08:04.940Z,26.50
2018-06-05T09:10:46.776Z,27.10
2018-06-05T09:13:25.267Z,27.40
2018-06-05T09:16:06.010Z,27.40
2018-06-05T09:18:44.069Z,26.90
2018-06-05T09:21:22.033Z,27.10
2018-06-05T09:23:57.937Z,27.60
2018-06-05T09:26:44.025Z,27.80
2018-06-05T09:29:20.123Z,27.50
2018-06-05T09:32:02.637Z,27.40
2018-06-05T09:34:41.434Z,27.90
2018-06-05T09:37:18.721Z,27.90
2018-06-05T09:39:54.496Z,28.20
2018-06-05T09:42:31.391Z,28.30
2018-06-05T09:45:06.520Z,28.00
2018-06-05T09:47:50.383Z,27.80
2018-06-05T09:50:28.347Z,27.50
2018-06-05T09:55:40.335Z,27.90
2018-06-05T10:03:44.451Z,28.20
2018-06-05T10:06:20.081Z,28.40
2018-06-05T10:09:00.056Z,28.40
2018-06-05T10:11:35.818Z,28.40
2018-06-05T10:14:13.784Z,28.10
2018-06-05T10:17:01.231Z,28.40
2018-06-05T10:19:41.813Z,28.80
2018-06-05T10:24:55.370Z,28.90
2018-06-05T10:32:57.058Z,28.50
2018-06-05T10:35:36.551Z,28.90
2018-06-05T10:40:58.770Z,27.90
2018-06-05T10:43:36.648Z,27.90
2018-06-05T10:46:10.180Z,27.70
2018-06-05T10:48:46.391Z,27.90
2018-06-05T10:51:32.439Z,28.40
2018-06-05T10:54:17.360Z,28.70
2018-06-05T10:57:02.169Z,28.50
2018-06-05T10:59:43.188Z,28.70
2018-06-05T11:02:22.120Z,28.70
2018-06-05T11:05:01.565Z,29.10
2018-06-05T11:07:45.695Z,29.40
2018-06-05T11:10:29.736Z,29.00
2018-06-05T11:13:10.558Z,28.20
2018-06-05T11:15:58.070Z,27.50
2018-06-05T11:18:38.866Z,27.10
2018-06-05T11:23:52.302Z,27.90
2018-06-05T11:26:34.079Z,27.90
2018-06-05T11:29:09.634Z,28.00
2018-06-05T11:31:52.012Z,27.80
2018-06-05T11:34:35.654Z,27.50
2018-06-05T11:37:10.399Z,27.40
2018-06-05T11:39:48.350Z,27.30
2018-06-05T11:42:28.518Z,27.10
2018-06-05T11:45:11.573Z,26.90
2018-06-05T11:47:51.441Z,27.50
2018-06-05T11:50:38.225Z,27.40
2018-06-05T11:53:20.192Z,27.10
2018-06-05T11:56:00.448Z,26.80
2018-06-05T11:58:37.903Z,27.10
2018-06-05T12:01:18.544Z,27.60
2018-06-05T12:06:47.054Z,28.30
2018-06-05T12:09:36.994Z,28.50
2018-06-05T12:12:13.385Z,28.30
2018-06-05T12:14:49.654Z,27.80
2018-06-05T12:17:35.113Z,27.40
2018-06-05T12:20:10.018Z,27.50
2018-06-05T12:22:52.998Z,27.30
2018-06-05T12:25:30.478Z,27.70
2018-06-05T12:28:12.757Z,28.10
2018-06-05T12:30:55.978Z,28.20
2018-06-05T12:33:35.806Z,27.90
2018-06-05T12:36:19.870Z,27.70
2018-06-05T12:39:03.621Z,27.30
2018-06-05T12:44:28.145Z,27.40
2018-06-05T12:47:07.944Z,27.30
2018-06-05T12:49:50.352Z,27.60
2018-06-05T12:52:29.504Z,27.70
2018-06-05T12:55:09.235Z,27.00
2018-06-05T12:57:45.456Z,26.50
2018-06-05T13:00:26.717Z,26.80
2018-06-05T13:05:50.321Z,27.30
2018-06-05T13:08:34.353Z,26.90
2018-06-05T13:11:13.515Z,26.90
2018-06-05T13:13:54.962Z,26.10
2018-06-05T13:16:32.697Z,26.20
2018-06-05T13:19:12.698Z,26.60
2018-06-05T13:21:49.446Z,26.90
2018-06-05T13:24:28.201Z,26.90
2018-06-05T13:27:14.434Z,26.90
2018-06-05T13:29:57.576Z,27.00
2018-06-05T13:32:41.982Z,26.90
2018-06-05T13:35:23.844Z,26.90
2018-06-05T13:38:07.984Z,27.00
2018-06-05T13:40:45.623Z,27.30
2018-06-05T13:43:26.165Z,28.10
2018-06-05T13:46:09.078Z,27.80
2018-06-05T13:48:50.599Z,27.30
2018-06-05T13:51:35.232Z,27.30
2018-06-05T13:54:17.535Z,27.00
2018-06-05T13:56:59.771Z,27.00
2018-06-05T13:59:36.465Z,27.00
2018-06-05T14:02:18.103Z,27.00
2018-06-05T14:04:58.509Z,26.90
2018-06-05T14:07:38.670Z,26.90
2018-06-05T14:10:19.089Z,27.10
2018-06-05T14:15:38.242Z,26.90
2018-06-05T14:18:18.871Z,26.80
2018-06-05T14:23:41.547Z,26.50
2018-06-05T14:26:19.664Z,26.40
2018-06-05T14:28:59.890Z,26.60
2018-06-05T14:31:41.314Z,26.30
2018-06-05T14:34:19.829Z,26.30
2018-06-05T14:39:55.655Z,26.30
2018-06-05T14:42:39.106Z,26.50
2018-06-05T14:45:18.570Z,26.60
2018-06-05T14:48:03.921Z,26.80
2018-06-05T14:50:41.035Z,26.70
2018-06-05T14:56:08.350Z,26.80
2018-06-05T14:58:50.730Z,26.50
2018-06-05T15:01:33.169Z,26.30
2018-06-05T15:04:12.641Z,26.50
2018-06-05T15:06:56.671Z,26.70
2018-06-05T15:09:34.683Z,26.70
2018-06-05T15:12:11.992Z,26.80
2018-06-05T15:14:53.956Z,26.80
2018-06-05T15:23:04.464Z,26.60
2018-06-05T15:25:45.302Z,26.80
2018-06-05T15:28:27.178Z,26.80
2018-06-05T15:31:12.142Z,26.80
2018-06-05T15:33:54.102Z,26.30
2018-06-05T15:36:33.647Z,26.20
2018-06-05T15:39:15.064Z,26.40
2018-06-05T15:41:55.376Z,26.50
2018-06-05T15:44:43.961Z,26.60
2018-06-05T15:47:24.669Z,26.70
2018-06-05T15:50:09.774Z,26.70
2018-06-05T15:55:47.286Z,26.90
2018-06-05T15:58:23.674Z,26.60
2018-06-05T16:01:04.313Z,26.50
2018-06-05T16:03:43.667Z,26.40
2018-06-05T16:06:23.788Z,26.60
2018-06-05T16:09:07.816Z,26.60
2018-06-05T16:11:51.747Z,26.60
2018-06-05T16:14:32.981Z,26.50
2018-06-05T16:17:12.540Z,26.60
2018-06-05T16:19:56.151Z,26.70
2018-06-05T16:22:36.064Z,26.80
2018-06-05T16:25:17.023Z,26.60
2018-06-05T16:30:39.100Z,26.50
2018-06-05T16:33:21.522Z,26.50
2018-06-05T16:38:39.464Z,26.70
2018-06-05T16:41:18.201Z,26.80
2018-06-05T16:43:59.213Z,26.80
2018-06-05T16:46:45.110Z,26.60
2018-06-05T16:49:33.144Z,26.60
2018-06-05T16:52:12.226Z,26.60
2018-06-05T16:54:52.089Z,26.30
2018-06-05T16:57:31.529Z,26.50
2018-06-05T17:02:49.911Z,26.50
2018-06-05T17:05:29.532Z,26.30
2018-06-05T17:08:09.330Z,26.40
2018-06-05T17:10:58.062Z,26.40
2018-06-05T17:13:39.582Z,26.30
2018-06-05T17:16:23.248Z,26.30
2018-06-05T17:19:05.094Z,26.30
2018-06-05T17:21:46.991Z,26.30
2018-06-05T17:24:33.729Z,26.10
2018-06-05T17:27:12.836Z,26.10
2018-06-05T17:29:50.948Z,26.00
2018-06-05T17:32:29.142Z,25.80
2018-06-05T17:35:14.973Z,25.80
2018-06-05T17:38:01.470Z,25.60
2018-06-05T17:40:44.154Z,25.50
2018-06-05T17:43:31.541Z,25.60
2018-06-05T17:46:14.665Z,25.80
2018-06-05T17:49:01.448Z,25.80
2018-06-05T17:51:46.404Z,25.40
2018-06-05T17:54:29.619Z,25.50
2018-06-05T17:57:08.327Z,25.40
2018-06-05T18:07:58.531Z,25.30
2018-06-05T18:10:37.486Z,25.00
2018-06-05T18:13:14.616Z,25.10
2018-06-05T18:15:53.877Z,25.00
2018-06-05T18:18:38.970Z,24.80
2018-06-05T18:21:25.161Z,24.70
2018-06-05T18:24:04.754Z,24.60
2018-06-05T18:26:51.086Z,24.60
2018-06-05T18:34:50.088Z,24.60
2018-06-05T18:37:34.138Z,24.50
2018-06-05T18:40:15.316Z,24.30
2018-06-05T18:45:31.043Z,23.90
2018-06-05T18:48:14.710Z,23.80
2018-06-05T18:53:46.877Z,23.60
2018-06-05T18:56:24.335Z,23.60
2018-06-05T18:59:01.503Z,23.60
2018-06-05T19:01:45.973Z,23.60
2018-06-05T19:04:24.630Z,23.20
2018-06-05T19:09:50.317Z,23.30
2018-06-05T19:12:29.596Z,23.10
2018-06-05T19:17:50.106Z,23.10
2018-06-05T19:23:19.764Z,23.10
2018-06-05T19:26:05.591Z,23.10
2018-06-05T19:28:48.121Z,23.10
2018-06-05T19:31:32.136Z,22.90
2018-06-05T19:34:14.384Z,22.10
2018-06-05T19:36:55.288Z,22.10
2018-06-05T19:39:38.172Z,22.40
2018-06-05T19:45:12.117Z,22.50
2018-06-05T19:47:59.140Z,22.50
2018-06-05T19:50:39.788Z,22.60
2018-06-05T19:55:59.368Z,22.10
2018-06-05T20:01:20.543Z,22.30
2018-06-05T20:03:59.658Z,22.30
2018-06-05T20:06:36.915Z,22.30
2018-06-05T20:09:22.287Z,22.10
2018-06-05T20:12:01.733Z,22.00
2018-06-05T20:14:42.641Z,21.90
2018-06-05T20:17:24.489Z,21.90
2018-06-05T20:20:06.508Z,22.10
2018-06-05T20:28:14.479Z,21.90
2018-06-05T20:30:55.423Z,22.00
2018-06-05T20:36:29.345Z,21.40
2018-06-05T20:39:11.899Z,21.40
2018-06-05T20:41:54.374Z,21.40
2018-06-05T20:44:39.239Z,21.40
2018-06-05T20:47:22.010Z,21.20
2018-06-05T20:50:02.290Z,21.10
2018-06-05T20:52:49.246Z,21.20
2018-06-05T20:58:17.055Z,21.10
2018-06-05T21:00:53.153Z,21.10
2018-06-05T21:03:33.907Z,21.20
2018-06-05T21:06:16.941Z,21.40
2018-06-05T21:08:58.878Z,21.30
2018-06-05T21:14:22.994Z,21.30
2018-06-05T21:17:05.305Z,20.90
2018-06-05T21:19:42.559Z,20.80
2018-06-05T21:25:15.119Z,20.90
2018-06-05T21:27:55.152Z,20.70
2018-06-05T21:30:36.924Z,20.80
2018-06-05T21:33:14.304Z,20.80
2018-06-05T21:36:00.563Z,20.70
2018-06-05T21:38:47.586Z,20.70
2018-06-05T21:41:25.956Z,20.80
2018-06-05T21:44:09.324Z,20.80
2018-06-05T21:46:49.832Z,20.70
2018-06-05T21:49:27.640Z,20.80
2018-06-05T21:52:12.152Z,20.40
2018-06-05T21:54:53.242Z,20.10
2018-06-05T22:00:21.826Z,20.20
2018-06-05T22:03:07.758Z,20.20
2018-06-05T22:05:49.265Z,20.20
2018-06-05T22:08:33.092Z,19.90
2018-06-05T22:11:13.710Z,20.10
2018-06-05T22:13:55.167Z,20.30
2018-06-05T22:16:36.280Z,20.30
2018-06-05T22:19:17.000Z,20.20
2018-06-05T22:22:06.299Z,20.10
2018-06-05T22:24:43.762Z,20.40
2018-06-05T22:27:22.478Z,20.50
2018-06-05T22:30:06.226Z,20.60
2018-06-05T22:32:45.261Z,20.50
2018-06-05T22:37:56.882Z,20.10
2018-06-05T22:43:11.765Z,20.30
2018-06-05T22:45:54.357Z,20.50
2018-06-05T22:51:08.251Z,20.40
2018-06-05T22:53:50.913Z,20.10
2018-06-05T22:56:31.886Z,19.90
2018-06-05T22:59:15.437Z,19.80
2018-06-05T23:01:56.112Z,19.90
2018-06-05T23:07:22.770Z,19.80
2018-06-05T23:10:03.122Z,19.60
2018-06-05T23:12:41.640Z,19.40
2018-06-05T23:15:21.171Z,19.20
2018-06-05T23:17:59.988Z,19.50
2018-06-05T23:20:47.861Z,19.80
2018-06-05T23:23:32.194Z,19.70
2018-06-05T23:26:12.328Z,20.10
2018-06-05T23:28:59.090Z,20.10
2018-06-05T23:34:16.365Z,20.20
2018-06-05T23:36:55.643Z,20.10
2018-06-05T23:39:38.698Z,20.10
2018-06-05T23:42:11.976Z,19.80
2018-06-05T23:44:56.511Z,20.00
2018-06-05T23:47:40.999Z,19.80
2018-06-05T23:50:21.295Z,19.80
2018-06-05T23:53:00.847Z,19.60
2018-06-05T23:55:39.322Z,19.40
2018-06-05T23:58:19.384Z,19.40
